createdAt,value
2018-08-03T00:00:47.166Z,0.00
2018-08-03T00:01:47.157Z,0.00
2018-08-03T00:02:47.158Z,0.00
2018-08-03T00:03:47.135Z,0.00
2018-08-03T00:04:47.090Z,0.00
2018-08-03T00:05:47.075Z,0.00
2018-08-03T00:06:47.049Z,0.00
2018-08-03T00:07:47.018Z,0.00
2018-08-03T00:08:46.997Z,0.00
2018-08-03T00:09:46.991Z,0.00
2018-08-03T00:10:46.983Z,0.00
2018-08-03T00:11:46.933Z,0.00
2018-08-03T00:12:46.914Z,0.00
2018-08-03T00:13:46.925Z,0.00
2018-08-03T00:14:46.896Z,0.00
2018-08-03T00:15:46.857Z,0.00
2018-08-03T00:16:46.846Z,0.00
2018-08-03T00:17:46.830Z,0.00
2018-08-03T00:18:46.796Z,0.00
2018-08-03T00:19:46.769Z,0.00
2018-08-03T00:20:46.750Z,0.00
2018-08-03T00:21:46.762Z,0.00
2018-08-03T00:22:46.700Z,0.00
2018-08-03T00:23:46.694Z,0.00
2018-08-03T00:24:46.682Z,0.00
2018-08-03T00:25:46.638Z,0.00
2018-08-03T00:26:46.620Z,0.00
2018-08-03T00:27:46.627Z,0.00
2018-08-03T00:28:46.596Z,0.00
2018-08-03T00:29:46.555Z,0.00
2018-08-03T00:30:46.543Z,0.00
2018-08-03T00:31:46.541Z,0.00
2018-08-03T00:32:46.511Z,0.00
2018-08-03T00:33:46.479Z,0.00
2018-08-03T00:34:46.452Z,0.00
2018-08-03T00:35:46.601Z,0.00
2018-08-03T00:36:46.418Z,0.00
2018-08-03T00:37:46.392Z,0.00
2018-08-03T00:38:46.380Z,0.00
2018-08-03T00:39:46.368Z,0.00
2018-08-03T00:40:46.327Z,0.00
2018-08-03T00:41:46.314Z,0.00
2018-08-03T00:42:46.297Z,0.00
2018-08-03T00:43:46.299Z,0.00
2018-08-03T00:44:46.260Z,0.00
2018-08-03T00:45:46.221Z,0.00
2018-08-03T00:46:46.230Z,0.00
2018-08-03T00:47:46.178Z,0.00
2018-08-03T00:48:46.168Z,0.00
2018-08-03T00:49:46.164Z,0.00
2018-08-03T00:50:46.137Z,0.00
2018-08-03T00:51:46.106Z,0.00
2018-08-03T00:52:46.072Z,0.00
2018-08-03T00:53:46.099Z,0.00
2018-08-03T00:54:46.038Z,0.00
2018-08-03T00:55:46.005Z,0.00
2018-08-03T00:56:46.005Z,0.00
2018-08-03T00:57:46.013Z,0.00
2018-08-03T00:58:45.945Z,0.00
2018-08-03T00:59:45.929Z,0.00
2018-08-03T01:00:45.936Z,0.00
2018-08-03T01:01:45.876Z,0.00
2018-08-03T01:02:45.864Z,0.00
2018-08-03T01:03:45.842Z,0.00
2018-08-03T01:04:45.850Z,0.00
2018-08-03T01:05:45.803Z,0.00
2018-08-03T01:06:45.784Z,0.00
2018-08-03T01:07:45.760Z,0.00
2018-08-03T01:08:45.766Z,0.00
2018-08-03T01:09:45.708Z,0.00
2018-08-03T01:10:45.694Z,0.00
2018-08-03T01:11:45.679Z,0.00
2018-08-03T01:12:45.656Z,0.00
2018-08-03T01:13:45.627Z,0.00
2018-08-03T01:14:45.617Z,0.00
2018-08-03T01:15:45.625Z,0.00
2018-08-03T01:16:45.576Z,0.00
2018-08-03T01:17:45.539Z,0.00
2018-08-03T01:18:45.542Z,0.00
2018-08-03T01:19:45.535Z,0.00
2018-08-03T01:20:45.475Z,0.00
2018-08-03T01:21:45.473Z,0.00
2018-08-03T01:22:45.457Z,0.00
2018-08-03T01:23:45.443Z,0.00
2018-08-03T01:24:45.411Z,0.00
2018-08-03T01:25:45.367Z,0.00
2018-08-03T01:26:45.358Z,0.00
2018-08-03T01:27:45.377Z,0.00
2018-08-03T01:28:45.311Z,0.00
2018-08-03T01:29:45.299Z,0.00
2018-08-03T01:30:45.269Z,0.00
2018-08-03T01:31:45.240Z,0.00
2018-08-03T01:32:45.225Z,0.00
2018-08-03T01:33:45.219Z,0.00
2018-08-03T01:34:45.221Z,0.00
2018-08-03T01:35:45.165Z,0.00
2018-08-03T01:36:45.156Z,0.00
2018-08-03T01:37:45.148Z,0.00
2018-08-03T01:38:45.090Z,0.00
2018-08-03T01:39:45.088Z,0.00
2018-08-03T01:40:45.078Z,0.00
2018-08-03T01:41:45.029Z,0.00
2018-08-03T01:42:45.011Z,0.00
2018-08-03T01:43:44.980Z,0.00
2018-08-03T01:44:44.969Z,0.00
2018-08-03T01:45:44.950Z,0.00
2018-08-03T01:46:44.928Z,0.00
2018-08-03T01:47:44.927Z,0.00
2018-08-03T01:48:44.875Z,0.00
2018-08-03T01:49:44.856Z,0.00
2018-08-03T01:50:44.860Z,0.00
2018-08-03T01:51:44.827Z,0.00
2018-08-03T01:52:44.786Z,0.00
2018-08-03T01:53:44.770Z,0.00
2018-08-03T01:54:44.765Z,0.00
2018-08-03T01:55:44.737Z,0.00
2018-08-03T01:56:44.720Z,0.00
2018-08-03T01:57:44.689Z,0.00
2018-08-03T01:58:44.667Z,0.00
2018-08-03T01:59:44.648Z,0.00
2018-08-03T02:00:44.615Z,0.00
2018-08-03T02:01:45.161Z,0.00
2018-08-03T02:02:44.594Z,0.00
2018-08-03T02:03:44.546Z,0.00
2018-08-03T02:04:44.533Z,0.00
2018-08-03T02:05:44.517Z,0.00
2018-08-03T02:06:44.516Z,0.00
2018-08-03T02:07:44.478Z,0.00
2018-08-03T02:08:44.446Z,0.00
2018-08-03T02:09:44.429Z,0.00
2018-08-03T02:10:44.406Z,0.00
2018-08-03T02:11:44.383Z,0.00
2018-08-03T02:12:44.364Z,0.00
2018-08-03T02:13:44.336Z,0.00
2018-08-03T02:14:44.328Z,0.00
2018-08-03T02:15:44.298Z,0.00
2018-08-03T02:16:44.288Z,0.00
2018-08-03T02:17:44.306Z,0.00
2018-08-03T02:18:44.240Z,0.00
2018-08-03T02:19:44.224Z,0.00
2018-08-03T02:20:44.188Z,0.00
2018-08-03T02:21:44.171Z,0.00
2018-08-03T02:22:44.145Z,0.00
2018-08-03T02:23:44.130Z,0.00
2018-08-03T02:24:44.099Z,0.00
2018-08-03T02:25:44.070Z,0.00
2018-08-03T02:26:44.064Z,0.00
2018-08-03T02:27:44.046Z,0.00
2018-08-03T02:28:44.015Z,0.00
2018-08-03T02:29:43.985Z,0.00
2018-08-03T02:30:44.060Z,0.00
2018-08-03T02:31:43.943Z,0.00
2018-08-03T02:32:43.928Z,0.00
2018-08-03T02:33:43.911Z,0.00
2018-08-03T02:34:43.912Z,0.00
2018-08-03T02:35:43.855Z,0.00
2018-08-03T02:36:43.842Z,0.00
2018-08-03T02:37:43.851Z,0.00
2018-08-03T02:38:43.837Z,0.00
2018-08-03T02:39:43.804Z,0.00
2018-08-03T02:40:43.753Z,0.00
2018-08-03T02:41:43.758Z,0.00
2018-08-03T02:42:43.736Z,0.00
2018-08-03T02:43:43.683Z,0.00
2018-08-03T02:44:43.669Z,0.00
2018-08-03T02:45:43.660Z,0.00
2018-08-03T02:46:43.626Z,0.00
2018-08-03T02:47:43.611Z,0.00
2018-08-03T02:48:43.582Z,0.00
2018-08-03T02:49:43.551Z,0.00
2018-08-03T02:50:43.530Z,0.00
2018-08-03T02:51:43.520Z,0.00
2018-08-03T02:52:43.492Z,0.00
2018-08-03T02:53:43.475Z,0.00
2018-08-03T02:54:43.443Z,0.00
2018-08-03T02:55:43.437Z,0.00
2018-08-03T02:56:43.434Z,0.00
2018-08-03T02:57:43.377Z,0.00
2018-08-03T02:58:43.369Z,0.00
2018-08-03T02:59:43.348Z,0.00
2018-08-03T03:00:43.321Z,0.00
2018-08-03T03:01:43.301Z,0.00
2018-08-03T03:02:43.277Z,0.00
2018-08-03T03:03:43.249Z,0.00
2018-08-03T03:04:43.229Z,0.00
2018-08-03T03:05:43.201Z,0.00
2018-08-03T03:06:43.199Z,0.00
2018-08-03T03:07:43.192Z,0.00
2018-08-03T03:08:43.145Z,0.00
2018-08-03T03:09:43.134Z,0.00
2018-08-03T03:10:43.138Z,0.00
2018-08-03T03:11:43.080Z,0.00
2018-08-03T03:12:43.055Z,0.00
2018-08-03T03:13:43.043Z,0.00
2018-08-03T03:14:43.024Z,0.00
2018-08-03T03:15:42.988Z,0.00
2018-08-03T03:16:42.969Z,0.00
2018-08-03T03:17:42.943Z,0.00
2018-08-03T03:18:42.928Z,0.00
2018-08-03T03:19:42.940Z,0.00
2018-08-03T03:20:42.903Z,0.00
2018-08-03T03:21:42.886Z,4.00
2018-08-03T03:22:42.834Z,0.00
2018-08-03T03:23:42.827Z,0.00
2018-08-03T03:24:42.813Z,4.00
2018-08-03T03:25:42.770Z,4.00
2018-08-03T03:26:42.749Z,0.00
2018-08-03T03:27:42.743Z,4.00
2018-08-03T03:28:42.740Z,4.00
2018-08-03T03:29:42.680Z,4.00
2018-08-03T03:30:42.670Z,8.00
2018-08-03T03:31:42.653Z,8.00
2018-08-03T03:32:42.692Z,4.00
2018-08-03T03:33:42.601Z,8.00
2018-08-03T03:34:42.584Z,8.00
2018-08-03T03:35:42.586Z,12.00
2018-08-03T03:36:42.543Z,12.00
2018-08-03T03:37:42.506Z,12.00
2018-08-03T03:38:42.539Z,12.00
2018-08-03T03:39:42.449Z,16.00
2018-08-03T03:40:42.453Z,20.00
2018-08-03T03:41:42.419Z,20.00
2018-08-03T03:42:42.438Z,20.00
2018-08-03T03:43:42.376Z,24.00
2018-08-03T03:44:42.352Z,28.00
2018-08-03T03:45:42.339Z,32.00
2018-08-03T03:46:42.305Z,32.00
2018-08-03T03:47:42.291Z,40.00
2018-08-03T03:48:42.307Z,40.00
2018-08-03T03:49:42.267Z,44.00
2018-08-03T03:50:42.224Z,48.00
2018-08-03T03:51:42.194Z,52.00
2018-08-03T03:52:42.161Z,56.00
2018-08-03T03:53:42.142Z,60.00
2018-08-03T03:54:42.129Z,68.00
2018-08-03T03:55:42.122Z,72.00
2018-08-03T03:56:42.088Z,76.00
2018-08-03T03:57:42.047Z,80.00
2018-08-03T03:58:42.047Z,88.00
2018-08-03T03:59:42.042Z,92.00
2018-08-03T04:00:41.994Z,100.00
2018-08-03T04:01:41.980Z,108.00
2018-08-03T04:02:41.944Z,116.00
2018-08-03T04:03:41.919Z,120.00
2018-08-03T04:04:41.904Z,128.00
2018-08-03T04:05:41.887Z,136.00
2018-08-03T04:06:41.860Z,144.00
2018-08-03T04:07:41.843Z,152.00
2018-08-03T04:08:41.809Z,160.00
2018-08-03T04:09:41.808Z,168.00
2018-08-03T04:10:41.780Z,176.00
2018-08-03T04:11:41.741Z,188.00
2018-08-03T04:12:41.747Z,196.00
2018-08-03T04:13:41.692Z,204.00
2018-08-03T04:14:41.682Z,212.00
2018-08-03T04:15:41.652Z,228.00
2018-08-03T04:16:41.636Z,236.00
2018-08-03T04:17:41.607Z,244.00
2018-08-03T04:18:41.583Z,256.00
2018-08-03T04:19:41.604Z,264.00
2018-08-03T04:20:41.535Z,276.00
2018-08-03T04:21:41.525Z,284.00
2018-08-03T04:22:41.510Z,296.00
2018-08-03T04:23:41.493Z,308.00
2018-08-03T04:24:41.451Z,320.00
2018-08-03T04:25:41.503Z,328.00
2018-08-03T04:26:41.406Z,344.00
2018-08-03T04:27:41.388Z,356.00
2018-08-03T04:28:41.365Z,368.00
2018-08-03T04:29:41.343Z,376.00
2018-08-03T04:30:41.353Z,388.00
2018-08-03T04:31:41.307Z,396.00
2018-08-03T04:32:41.318Z,412.00
2018-08-03T04:33:41.254Z,420.00
2018-08-03T04:34:41.224Z,432.00
2018-08-03T04:35:41.236Z,440.00
2018-08-03T04:36:41.185Z,452.00
2018-08-03T04:37:41.160Z,464.00
2018-08-03T04:38:41.140Z,476.00
2018-08-03T04:39:41.132Z,488.00
2018-08-03T04:40:41.116Z,496.00
2018-08-03T04:41:41.075Z,508.00
2018-08-03T04:42:41.194Z,520.00
2018-08-03T04:43:41.126Z,532.00
2018-08-03T04:44:41.137Z,540.00
2018-08-03T04:45:40.994Z,552.00
2018-08-03T04:46:41.074Z,564.00
2018-08-03T04:47:40.948Z,576.00
2018-08-03T04:48:41.027Z,588.00
2018-08-03T04:49:40.901Z,596.00
2018-08-03T04:50:40.956Z,604.00
2018-08-03T04:51:40.929Z,616.00
2018-08-03T04:52:40.893Z,624.00
2018-08-03T04:53:40.849Z,636.00
2018-08-03T04:54:40.796Z,648.00
2018-08-03T04:55:40.774Z,656.00
2018-08-03T04:56:40.851Z,668.00
2018-08-03T04:57:40.734Z,676.00
2018-08-03T04:58:40.694Z,688.00
2018-08-03T04:59:40.736Z,696.00
2018-08-03T05:00:40.726Z,708.00
2018-08-03T05:01:40.735Z,716.00
2018-08-03T05:02:40.673Z,728.00
2018-08-03T05:03:40.582Z,736.00
2018-08-03T05:04:40.648Z,748.00
2018-08-03T05:05:40.572Z,760.00
2018-08-03T05:06:40.581Z,768.00
2018-08-03T05:07:40.490Z,776.00
2018-08-03T05:08:40.471Z,788.00
2018-08-03T05:09:40.509Z,800.00
2018-08-03T05:10:40.504Z,808.00
2018-08-03T05:11:40.519Z,820.00
2018-08-03T05:12:40.518Z,828.00
2018-08-03T05:13:40.416Z,840.00
2018-08-03T05:14:40.380Z,848.00
2018-08-03T05:15:40.422Z,860.00
2018-08-03T05:16:40.368Z,868.00
2018-08-03T05:17:40.355Z,876.00
2018-08-03T05:18:40.336Z,884.00
2018-08-03T05:19:40.250Z,892.00
2018-08-03T05:20:40.275Z,904.00
2018-08-03T05:21:40.187Z,912.00
2018-08-03T05:22:40.223Z,920.00
2018-08-03T05:23:40.179Z,924.00
2018-08-03T05:24:40.193Z,932.00
2018-08-03T05:25:40.095Z,940.00
2018-08-03T05:26:40.150Z,948.00
2018-08-03T05:27:40.120Z,956.00
2018-08-03T05:28:40.098Z,968.00
2018-08-03T05:29:40.019Z,976.00
2018-08-03T05:30:40.080Z,980.00
2018-08-03T05:31:40.051Z,988.00
2018-08-03T05:32:39.974Z,996.00
2018-08-03T05:33:39.953Z,1000.00
2018-08-03T05:34:39.972Z,1008.00
2018-08-03T05:35:39.877Z,1020.00
2018-08-03T05:36:39.874Z,1028.00
2018-08-03T05:37:39.914Z,1036.00
2018-08-03T05:38:39.816Z,1040.00
2018-08-03T05:39:39.888Z,1044.00
2018-08-03T05:40:39.793Z,1052.00
2018-08-03T05:41:39.839Z,1060.00
2018-08-03T05:42:39.743Z,1068.00
2018-08-03T05:43:39.703Z,1076.00
2018-08-03T05:44:39.688Z,1080.00
2018-08-03T05:45:39.755Z,1092.00
2018-08-03T05:46:39.716Z,1100.00
2018-08-03T05:47:39.712Z,1108.00
2018-08-03T05:48:39.723Z,1116.00
2018-08-03T05:49:40.361Z,1124.00
2018-08-03T05:50:39.689Z,1132.00
2018-08-03T05:51:39.573Z,1140.00
2018-08-03T05:52:39.566Z,1148.00
2018-08-03T05:53:39.607Z,1156.00
2018-08-03T05:54:39.481Z,1164.00
2018-08-03T05:55:39.499Z,1172.00
2018-08-03T05:56:39.434Z,1176.00
2018-08-03T05:57:39.437Z,1188.00
2018-08-03T05:58:39.444Z,1196.00
2018-08-03T05:59:39.553Z,1200.00
2018-08-03T06:00:39.464Z,1208.00
2018-08-03T06:01:39.517Z,1216.00
2018-08-03T06:02:39.403Z,1220.00
2018-08-03T06:03:39.329Z,1224.00
2018-08-03T06:04:39.376Z,1232.00
2018-08-03T06:05:39.208Z,1236.00
2018-08-03T06:06:39.201Z,1240.00
2018-08-03T06:07:39.190Z,1248.00
2018-08-03T06:08:39.154Z,1256.00
2018-08-03T06:09:39.150Z,1264.00
2018-08-03T06:10:39.120Z,1272.00
2018-08-03T06:11:39.086Z,1280.00
2018-08-03T06:12:39.086Z,1292.00
2018-08-03T06:13:39.020Z,1296.00
2018-08-03T06:14:39.013Z,1300.00
2018-08-03T06:15:39.009Z,1308.00
2018-08-03T06:16:38.955Z,1316.00
2018-08-03T06:17:39.070Z,1320.00
2018-08-03T06:18:38.984Z,1328.00
2018-08-03T06:19:39.031Z,1332.00
2018-08-03T06:20:39.043Z,1340.00
2018-08-03T06:21:38.872Z,1352.00
2018-08-03T06:22:38.861Z,1356.00
2018-08-03T06:23:38.819Z,1364.00
2018-08-03T06:24:38.791Z,1372.00
2018-08-03T06:25:38.812Z,1380.00
2018-08-03T06:26:39.109Z,1384.00
2018-08-03T06:27:38.776Z,1392.00
2018-08-03T06:28:38.699Z,1400.00
2018-08-03T06:29:38.747Z,1404.00
2018-08-03T06:30:38.672Z,1412.00
2018-08-03T06:31:38.644Z,1420.00
2018-08-03T06:32:38.650Z,1420.00
2018-08-03T06:33:38.597Z,1428.00
2018-08-03T06:34:38.771Z,1436.00
2018-08-03T06:35:38.676Z,1444.00
2018-08-03T06:36:38.560Z,1452.00
2018-08-03T06:37:38.549Z,1460.00
2018-08-03T06:38:39.152Z,1464.00
2018-08-03T06:39:38.565Z,1472.00
2018-08-03T06:40:38.521Z,1480.00
2018-08-03T06:41:38.418Z,1484.00
2018-08-03T06:42:38.904Z,1484.00
2018-08-03T06:43:38.480Z,1492.00
2018-08-03T06:44:38.392Z,1496.00
2018-08-03T06:45:38.436Z,1500.00
2018-08-03T06:46:38.444Z,1504.00
2018-08-03T06:47:38.419Z,1512.00
2018-08-03T06:48:38.376Z,1516.00
2018-08-03T06:49:38.380Z,1520.00
2018-08-03T06:50:38.902Z,1524.00
2018-08-03T06:51:38.673Z,1532.00
2018-08-03T06:52:41.840Z,1536.00
2018-08-03T06:53:38.235Z,1540.00
2018-08-03T06:54:38.738Z,1540.00
2018-08-03T06:55:38.156Z,1548.00
2018-08-03T06:56:38.110Z,1552.00
2018-08-03T06:57:38.320Z,1556.00
2018-08-03T06:58:38.103Z,1564.00
2018-08-03T06:59:38.097Z,1568.00
2018-08-03T07:00:38.051Z,1572.00
2018-08-03T07:01:38.773Z,1580.00
2018-08-03T07:02:38.062Z,1588.00
2018-08-03T07:03:37.964Z,1592.00
2018-08-03T07:04:37.953Z,1596.00
2018-08-03T07:05:37.982Z,1596.00
2018-08-03T07:06:37.921Z,1600.00
2018-08-03T07:07:38.288Z,1600.00
2018-08-03T07:08:37.886Z,1604.00
2018-08-03T07:09:37.847Z,1608.00
2018-08-03T07:10:37.816Z,1608.00
2018-08-03T07:11:37.807Z,1616.00
2018-08-03T07:12:37.774Z,1620.00
2018-08-03T07:13:37.768Z,1624.00
2018-08-03T07:14:37.802Z,1628.00
2018-08-03T07:15:37.733Z,1628.00
2018-08-03T07:16:37.708Z,1628.00
2018-08-03T07:17:37.695Z,1628.00
2018-08-03T07:18:37.685Z,1632.00
2018-08-03T07:19:37.649Z,1636.00
2018-08-03T07:20:37.658Z,1636.00
2018-08-03T07:21:37.686Z,1640.00
2018-08-03T07:22:37.583Z,1640.00
2018-08-03T07:23:37.560Z,1640.00
2018-08-03T07:24:37.554Z,1644.00
2018-08-03T07:25:37.529Z,1648.00
2018-08-03T07:26:37.507Z,1644.00
2018-08-03T07:27:37.487Z,1644.00
2018-08-03T07:28:37.467Z,1648.00
2018-08-03T07:29:37.468Z,1648.00
2018-08-03T07:30:37.424Z,1648.00
2018-08-03T07:31:37.446Z,1648.00
2018-08-03T07:32:37.412Z,1648.00
2018-08-03T07:33:37.366Z,1652.00
2018-08-03T07:34:37.351Z,1648.00
2018-08-03T07:35:37.319Z,1652.00
2018-08-03T07:36:37.333Z,1656.00
2018-08-03T07:37:37.288Z,1656.00
2018-08-03T07:38:37.294Z,1656.00
2018-08-03T07:39:37.248Z,1656.00
2018-08-03T07:40:37.236Z,1656.00
2018-08-03T07:41:37.213Z,1656.00
2018-08-03T07:42:37.202Z,1652.00
2018-08-03T07:43:37.219Z,1648.00
2018-08-03T07:44:37.204Z,1648.00
2018-08-03T07:45:37.142Z,1644.00
2018-08-03T07:46:37.114Z,1644.00
2018-08-03T07:47:37.096Z,1640.00
2018-08-03T07:48:37.071Z,1640.00
2018-08-03T07:49:37.058Z,1636.00
2018-08-03T07:50:37.035Z,1636.00
2018-08-03T07:51:37.051Z,1636.00
2018-08-03T07:52:37.049Z,1640.00
2018-08-03T07:53:36.992Z,1636.00
2018-08-03T07:54:36.959Z,1636.00
2018-08-03T07:55:36.945Z,1636.00
2018-08-03T07:56:36.932Z,1636.00
2018-08-03T07:57:36.940Z,1636.00
2018-08-03T07:58:36.883Z,1636.00
2018-08-03T07:59:36.867Z,1636.00
2018-08-03T08:00:36.852Z,1636.00
2018-08-03T08:01:36.826Z,1636.00
2018-08-03T08:02:36.859Z,1632.00
2018-08-03T08:03:36.795Z,1632.00
2018-08-03T08:04:36.775Z,1632.00
2018-08-03T08:05:36.769Z,1628.00
2018-08-03T08:06:36.740Z,1624.00
2018-08-03T08:07:36.742Z,1628.00
2018-08-03T08:08:36.708Z,1628.00
2018-08-03T08:09:36.693Z,1632.00
2018-08-03T08:10:36.659Z,1632.00
2018-08-03T08:11:36.637Z,1632.00
2018-08-03T08:12:36.617Z,1636.00
2018-08-03T08:13:36.598Z,1640.00
2018-08-03T08:14:36.583Z,1640.00
2018-08-03T08:15:36.645Z,1644.00
2018-08-03T08:16:36.562Z,1644.00
2018-08-03T08:17:36.528Z,1652.00
2018-08-03T08:18:36.509Z,1652.00
2018-08-03T08:19:36.504Z,1656.00
2018-08-03T08:20:36.479Z,1656.00
2018-08-03T08:21:36.456Z,1660.00
2018-08-03T08:22:36.436Z,1660.00
2018-08-03T08:23:36.417Z,1664.00
2018-08-03T08:24:36.417Z,1660.00
2018-08-03T08:25:36.380Z,1664.00
2018-08-03T08:26:36.361Z,1664.00
2018-08-03T08:27:36.352Z,1672.00
2018-08-03T08:28:36.339Z,1672.00
2018-08-03T08:29:36.317Z,1676.00
2018-08-03T08:30:36.287Z,1676.00
2018-08-03T08:31:36.350Z,1680.00
2018-08-03T08:32:36.255Z,1688.00
2018-08-03T08:33:36.239Z,1684.00
2018-08-03T08:34:36.223Z,1688.00
2018-08-03T08:35:36.207Z,1688.00
2018-08-03T08:36:36.205Z,1696.00
2018-08-03T08:37:36.762Z,1696.00
2018-08-03T08:38:36.154Z,1704.00
2018-08-03T08:39:36.133Z,1708.00
2018-08-03T08:40:36.120Z,1708.00
2018-08-03T08:41:36.103Z,1716.00
2018-08-03T08:42:36.076Z,1720.00
2018-08-03T08:43:36.097Z,1724.00
2018-08-03T08:44:36.052Z,1728.00
2018-08-03T08:45:36.025Z,1732.00
2018-08-03T08:46:36.005Z,1740.00
2018-08-03T08:47:35.999Z,1740.00
2018-08-03T08:48:35.997Z,1744.00
2018-08-03T08:49:35.967Z,1748.00
2018-08-03T08:50:35.931Z,1756.00
2018-08-03T08:51:35.917Z,1756.00
2018-08-03T08:52:35.911Z,1756.00
2018-08-03T08:53:35.878Z,1760.00
2018-08-03T08:54:35.888Z,1760.00
2018-08-03T08:55:35.848Z,1768.00
2018-08-03T08:56:35.835Z,1768.00
2018-08-03T08:57:35.831Z,1772.00
2018-08-03T08:58:35.798Z,1772.00
2018-08-03T08:59:35.830Z,1776.00
2018-08-03T09:00:35.767Z,1772.00
2018-08-03T09:01:35.744Z,1780.00
2018-08-03T09:02:35.725Z,1780.00
2018-08-03T09:03:35.710Z,1784.00
2018-08-03T09:04:35.709Z,1784.00
2018-08-03T09:05:35.687Z,1788.00
2018-08-03T09:06:35.655Z,1784.00
2018-08-03T09:07:35.669Z,1784.00
2018-08-03T09:08:35.637Z,1788.00
2018-08-03T09:09:35.612Z,1796.00
2018-08-03T09:10:35.593Z,1796.00
2018-08-03T09:11:35.570Z,1800.00
2018-08-03T09:12:35.558Z,1800.00
2018-08-03T09:13:35.547Z,1800.00
2018-08-03T09:14:35.528Z,1796.00
2018-08-03T09:15:35.507Z,1800.00
2018-08-03T09:16:35.482Z,1792.00
2018-08-03T09:17:35.489Z,1796.00
2018-08-03T09:18:35.465Z,1792.00
2018-08-03T09:19:35.431Z,1784.00
2018-08-03T09:20:35.422Z,1788.00
2018-08-03T09:21:35.423Z,1800.00
2018-08-03T09:22:35.388Z,1800.00
2018-08-03T09:23:35.372Z,1804.00
2018-08-03T09:24:35.348Z,1804.00
2018-08-03T09:25:35.335Z,1804.00
2018-08-03T09:26:35.318Z,1808.00
2018-08-03T09:27:35.295Z,1808.00
2018-08-03T09:28:35.289Z,1812.00
2018-08-03T09:29:35.278Z,1812.00
2018-08-03T09:30:35.260Z,1816.00
2018-08-03T09:31:35.246Z,1816.00
2018-08-03T09:32:35.221Z,1816.00
2018-08-03T09:33:35.195Z,1820.00
2018-08-03T09:34:35.189Z,1820.00
2018-08-03T09:35:35.225Z,1812.00
2018-08-03T09:36:35.176Z,1812.00
2018-08-03T09:37:35.137Z,1808.00
2018-08-03T09:38:35.122Z,1812.00
2018-08-03T09:39:35.106Z,1804.00
2018-08-03T09:40:35.082Z,1808.00
2018-08-03T09:41:35.065Z,1808.00
2018-08-03T09:42:35.055Z,1808.00
2018-08-03T09:43:35.786Z,1804.00
2018-08-03T09:44:35.020Z,1804.00
2018-08-03T09:45:35.009Z,1800.00
2018-08-03T09:46:34.989Z,1800.00
2018-08-03T09:47:34.981Z,1800.00
2018-08-03T09:48:34.990Z,1792.00
2018-08-03T09:49:34.939Z,1788.00
2018-08-03T09:50:34.929Z,1792.00
2018-08-03T09:51:34.917Z,1792.00
2018-08-03T09:52:34.912Z,1788.00
2018-08-03T09:53:34.879Z,1784.00
2018-08-03T09:54:34.912Z,1784.00
2018-08-03T09:55:34.839Z,1788.00
2018-08-03T09:56:34.830Z,1788.00
2018-08-03T09:57:34.822Z,1788.00
2018-08-03T09:58:34.812Z,1792.00
2018-08-03T09:59:34.783Z,1792.00
2018-08-03T10:00:34.778Z,1792.00
2018-08-03T10:01:34.773Z,1796.00
2018-08-03T10:02:34.754Z,1796.00
2018-08-03T10:03:34.710Z,1800.00
2018-08-03T10:04:34.703Z,1804.00
2018-08-03T10:05:34.683Z,1804.00
2018-08-03T10:06:34.684Z,1808.00
2018-08-03T10:07:34.649Z,1812.00
2018-08-03T10:08:34.634Z,1812.00
2018-08-03T10:09:34.619Z,1812.00
2018-08-03T10:10:34.615Z,1808.00
2018-08-03T10:11:34.602Z,1808.00
2018-08-03T10:12:34.570Z,1808.00
2018-08-03T10:13:34.556Z,1808.00
2018-08-03T10:14:34.546Z,1800.00
2018-08-03T10:15:34.540Z,1800.00
2018-08-03T10:16:34.501Z,1804.00
2018-08-03T10:17:34.493Z,1804.00
2018-08-03T10:18:34.472Z,1808.00
2018-08-03T10:19:34.486Z,1804.00
2018-08-03T10:20:34.441Z,1808.00
2018-08-03T10:21:34.433Z,1812.00
2018-08-03T10:22:34.409Z,1820.00
2018-08-03T10:23:34.392Z,1828.00
2018-08-03T10:24:34.407Z,1808.00
2018-08-03T10:25:34.371Z,1804.00
2018-08-03T10:26:34.375Z,1808.00
2018-08-03T10:27:34.334Z,1816.00
2018-08-03T10:28:34.322Z,1824.00
2018-08-03T10:29:34.333Z,1828.00
2018-08-03T10:30:34.283Z,1844.00
2018-08-03T10:31:34.275Z,1852.00
2018-08-03T10:32:34.264Z,1864.00
2018-08-03T10:33:34.243Z,1880.00
2018-08-03T10:34:34.226Z,1928.00
2018-08-03T10:35:34.209Z,1984.00
2018-08-03T10:36:34.202Z,2008.00
2018-08-03T10:37:34.191Z,2028.00
2018-08-03T10:38:34.173Z,2004.00
2018-08-03T10:39:34.164Z,1960.00
2018-08-03T10:40:34.130Z,1960.00
2018-08-03T10:41:34.121Z,1972.00
2018-08-03T10:42:34.140Z,2000.00
2018-08-03T10:43:34.120Z,2016.00
2018-08-03T10:44:34.078Z,2008.00
2018-08-03T10:45:34.057Z,2036.00
2018-08-03T10:46:34.062Z,2072.00
2018-08-03T10:47:34.057Z,2108.00
2018-08-03T10:48:34.048Z,2072.00
2018-08-03T10:49:34.010Z,2076.00
2018-08-03T10:50:33.989Z,2136.00
2018-08-03T10:51:33.975Z,2192.00
2018-08-03T10:52:33.949Z,2204.00
2018-08-03T10:53:33.949Z,2200.00
2018-08-03T10:54:33.925Z,2168.00
2018-08-03T10:55:33.917Z,2108.00
2018-08-03T10:56:33.910Z,2032.00
2018-08-03T10:57:33.879Z,1992.00
2018-08-03T10:58:33.868Z,1988.00
2018-08-03T10:59:33.850Z,1976.00
2018-08-03T11:00:33.842Z,1988.00
2018-08-03T11:01:33.850Z,1996.00
2018-08-03T11:02:33.810Z,2008.00
2018-08-03T11:03:33.792Z,2024.00
2018-08-03T11:04:33.775Z,2036.00
2018-08-03T11:05:33.758Z,2044.00
2018-08-03T11:06:33.748Z,2040.00
2018-08-03T11:07:33.726Z,2084.00
2018-08-03T11:08:33.721Z,2084.00
2018-08-03T11:09:33.698Z,2060.00
2018-08-03T11:10:33.699Z,2048.00
2018-08-03T11:11:33.697Z,2040.00
2018-08-03T11:12:33.665Z,2068.00
2018-08-03T11:13:33.653Z,2112.00
2018-08-03T11:14:33.628Z,2196.00
2018-08-03T11:15:33.616Z,2276.00
2018-08-03T11:16:33.596Z,2340.00
2018-08-03T11:17:33.584Z,2356.00
2018-08-03T11:18:33.566Z,2336.00
2018-08-03T11:19:33.567Z,2312.00
2018-08-03T11:20:33.544Z,2292.00
2018-08-03T11:21:33.525Z,1964.00
2018-08-03T11:22:33.527Z,2152.00
2018-08-03T11:23:33.498Z,2188.00
2018-08-03T11:24:33.485Z,2060.00
2018-08-03T11:25:33.465Z,2068.00
2018-08-03T11:26:33.456Z,2244.00
2018-08-03T11:27:33.437Z,2008.00
2018-08-03T11:28:33.427Z,2008.00
2018-08-03T11:29:33.435Z,2040.00
2018-08-03T11:30:33.395Z,1944.00
2018-08-03T11:31:33.384Z,1972.00
2018-08-03T11:32:33.366Z,1952.00
2018-08-03T11:33:33.363Z,2008.00
2018-08-03T11:34:33.338Z,1980.00
2018-08-03T11:35:33.325Z,2012.00
2018-08-03T11:36:33.309Z,2088.00
2018-08-03T11:37:33.293Z,2140.00
2018-08-03T11:38:33.284Z,2252.00
2018-08-03T11:39:33.283Z,2584.00
2018-08-03T11:40:33.273Z,2668.00
2018-08-03T11:41:33.234Z,2492.00
2018-08-03T11:42:33.230Z,2712.00
2018-08-03T11:43:33.220Z,2692.00
2018-08-03T11:44:33.227Z,2492.00
2018-08-03T11:45:33.185Z,2464.00
2018-08-03T11:46:33.162Z,2704.00
2018-08-03T11:47:33.158Z,2916.00
2018-08-03T11:48:33.139Z,2920.00
2018-08-03T11:49:33.122Z,2928.00
2018-08-03T11:50:33.111Z,2764.00
2018-08-03T11:51:33.102Z,2824.00
2018-08-03T11:52:33.101Z,2776.00
2018-08-03T11:53:33.078Z,2664.00
2018-08-03T11:54:33.054Z,2644.00
2018-08-03T11:55:33.041Z,2712.00
2018-08-03T11:56:33.023Z,3012.00
2018-08-03T11:57:33.034Z,2824.00
2018-08-03T11:58:32.999Z,2688.00
2018-08-03T11:59:32.978Z,2820.00
2018-08-03T12:00:32.970Z,2988.00
2018-08-03T12:01:32.950Z,3028.00
2018-08-03T12:02:32.969Z,2924.00
2018-08-03T12:03:32.959Z,2648.00
2018-08-03T12:04:32.906Z,2580.00
2018-08-03T12:05:32.893Z,2600.00
2018-08-03T12:06:32.925Z,2740.00
2018-08-03T12:07:32.875Z,2608.00
2018-08-03T12:08:32.864Z,2376.00
2018-08-03T12:09:32.848Z,2388.00
2018-08-03T12:10:32.833Z,2632.00
2018-08-03T12:11:32.816Z,2732.00
2018-08-03T12:12:32.842Z,3028.00
2018-08-03T12:13:32.786Z,3084.00
2018-08-03T12:14:32.771Z,3148.00
2018-08-03T12:15:32.753Z,2972.00
2018-08-03T12:16:32.746Z,2884.00
2018-08-03T12:17:32.749Z,2868.00
2018-08-03T12:18:32.846Z,2864.00
2018-08-03T12:19:32.799Z,2856.00
2018-08-03T12:20:32.681Z,2844.00
2018-08-03T12:21:32.670Z,2828.00
2018-08-03T12:22:32.674Z,2808.00
2018-08-03T12:23:32.679Z,2808.00
2018-08-03T12:24:32.632Z,2812.00
2018-08-03T12:25:32.616Z,2848.00
2018-08-03T12:26:32.617Z,2884.00
2018-08-03T12:27:32.617Z,2912.00
2018-08-03T12:28:32.568Z,2924.00
2018-08-03T12:29:32.552Z,2984.00